KAPC/APC METAR and TAF weather

Enter ICAO airport designator
Station Type Date Time Source
KAPC METAR 2020/03/29 20:54 UTC NOAA

KAPC 292054Z 23007KT 10SM FEW027 BKN070 16/09 A3013 RMK AO2 SLP194 T01560089 58004


Station Type Date Time Source
KAPC Decoded METAR 2020/03/29 20:54 UTC NOAA

NAPA COUNTY AIRPORT, CA, United States (KAPC) 38-12N 122-17W 13M
Mar 29, 2020 - 04:54 PM EDT / 2020.03.29 2054 UTC
Wind: from the SW (230 degrees) at 8 MPH (7 KT):0
Visibility: 10 mile(s):0
Sky conditions: mostly cloudy
Temperature: 60.1 F (15.6 C)
Dew Point: 48.0 F (8.9 C)
Relative Humidity: 64%
Pressure (altimeter): 30.13 in. Hg (1020 hPa)
Pressure tendency: 0.01 inches (0.4 hPa) lower than three hours ago
ob: KAPC 292054Z 23007KT 10SM FEW027 BKN070 16/09 A3013 RMK AO2 SLP194 T01560089 58004
cycle: 21

Station Type Date Time Source
KAPC TAF 2016/02/08 18:39 UTC NOAA

TAF KAPC 081738Z 0818/0918 08008KT P6SM SKC
FM081900 09012KT P6SM SKC
FM090000 07007KT P6SM SKC
FM090600 04004KT P6SM SKC

Example: see airport list